Time;durP1;ratioP1;P1;durP2;ratioP2;P2;SDS_P1;SDS_P2;PMS_P1;PMS_P2;Temp;Humidity;BMP_temperature;BMP_pressure;BME280_temperature;BME280_humidity;BME280_pressure;Samples;Min_cycle;Max_cycle;Signal;HPM_P1;HPM_P2
2022/04/10 00:01:34;;;;;;;3.20;1.53;;;3.70;99.90;;;;;;5028877;28;20204;-76
2022/04/10 00:04:01;;;;;;;4.63;1.70;;;3.70;99.90;;;;;;5028734;28;20668;-75
2022/04/10 00:06:28;;;;;;;3.30;1.57;;;3.70;99.90;;;;;;5043265;28;20670;-75
2022/04/10 00:08:54;;;;;;;2.27;1.40;;;3.80;99.90;;;;;;5046853;28;20208;-75
2022/04/10 00:11:21;;;;;;;4.47;1.70;;;3.80;99.90;;;;;;5028842;28;20212;-75
2022/04/10 00:13:49;;;;;;;2.27;1.50;;;3.70;99.90;;;;;;5028584;28;20213;-73
2022/04/10 00:16:16;;;;;;;5.33;2.07;;;3.60;99.90;;;;;;5028433;28;20217;-73
2022/04/10 00:18:42;;;;;;;4.17;2.30;;;3.60;99.90;;;;;;5028590;28;20236;-73
2022/04/10 00:21:09;;;;;;;2.50;1.70;;;3.70;99.90;;;;;;5047565;28;20236;-73
2022/04/10 00:23:35;;;;;;;3.13;1.97;;;3.70;99.90;;;;;;5039380;28;20243;-73
2022/04/10 00:26:02;;;;;;;5.60;2.13;;;3.60;99.90;;;;;;5027953;28;20212;-73
2022/04/10 00:28:29;;;;;;;4.93;2.00;;;3.50;99.90;;;;;;5028691;28;20209;-73
2022/04/10 00:30:57;;;;;;;2.83;1.80;;;3.50;99.90;;;;;;5028184;28;20209;-73
2022/04/10 00:33:23;;;;;;;4.60;2.20;;;3.50;99.90;;;;;;5032610;28;20215;-73
2022/04/10 00:35:50;;;;;;;3.00;2.30;;;3.50;99.90;;;;;;5048450;28;20204;-78
2022/04/10 00:38:16;;;;;;;2.47;1.90;;;3.50;99.90;;;;;;5048409;28;20235;-77
2022/04/10 00:40:43;;;;;;;4.03;2.30;;;3.40;99.90;;;;;;5038099;28;20614;-77
2022/04/10 00:43:10;;;;;;;3.07;2.17;;;3.50;99.90;;;;;;5028645;28;20221;-77
2022/04/10 00:45:38;;;;;;;2.20;2.00;;;3.50;99.90;;;;;;5025923;28;20262;-77
2022/04/10 00:48:06;;;;;;;2.60;1.87;;;3.40;99.90;;;;;;5034546;28;20247;-76
2022/04/10 00:50:33;;;;;;;2.60;1.90;;;3.40;99.90;;;;;;5041459;28;20259;-77
2022/04/10 00:53:00;;;;;;;4.57;2.13;;;3.40;99.90;;;;;;5027996;28;20212;-76
2022/04/10 00:55:28;;;;;;;2.23;2.13;;;3.50;99.90;;;;;;5028292;28;20201;-74
2022/04/10 00:57:55;;;;;;;2.33;2.23;;;3.50;99.90;;;;;;5028038;28;20233;-75
2022/04/10 01:00:22;;;;;;;2.27;2.17;;;3.50;99.90;;;;;;5029771;28;20462;-74
2022/04/10 01:02:48;;;;;;;3.73;2.20;;;3.50;99.90;;;;;;5047077;28;20265;-75
2022/04/10 01:05:17;;;;;;;3.63;2.27;;;3.70;99.90;;;;;;5049499;28;20278;-74
2022/04/10 01:07:45;;;;;;;3.83;2.07;;;3.60;99.90;;;;;;5032086;28;20212;-73
2022/04/10 01:10:11;;;;;;;3.87;2.20;;;3.50;99.90;;;;;;5032033;28;20204;-79
2022/04/10 01:12:38;;;;;;;3.00;2.20;;;3.60;99.90;;;;;;5032329;28;20262;-79
2022/04/10 01:15:05;;;;;;;3.73;2.07;;;3.60;99.90;;;;;;5031457;28;20239;-79
2022/04/10 01:17:33;;;;;;;2.10;1.90;;;3.50;99.90;;;;;;5031533;28;20785;-79
2022/04/10 01:20:00;;;;;;;2.50;2.10;;;3.50;99.90;;;;;;5031396;28;20239;-73
2022/04/10 01:22:31;;;;;;;4.10;2.10;;;3.50;99.90;;;;;;5031406;28;20209;-73
2022/04/10 01:24:59;;;;;;;2.53;2.00;;;3.50;99.90;;;;;;5031347;28;20655;-73
2022/04/10 01:27:26;;;;;;;5.40;2.40;;;3.50;99.90;;;;;;5031854;28;20212;-73
2022/04/10 01:29:52;;;;;;;2.40;2.20;;;3.40;99.90;;;;;;5031134;28;20205;-73
2022/04/10 01:32:19;;;;;;;3.90;2.13;;;3.40;99.90;;;;;;5031328;28;20262;-73
2022/04/10 01:34:47;;;;;;;2.40;1.80;;;3.40;99.90;;;;;;5031809;28;20212;-73
2022/04/10 01:37:16;;;;;;;5.00;2.83;;;3.40;99.90;;;;;;5031392;28;20239;-73
2022/04/10 01:39:44;;;;;;;2.67;2.30;;;3.40;99.90;;;;;;5031358;28;20238;-73
2022/04/10 01:42:11;;;;;;;3.50;2.00;;;3.40;99.90;;;;;;5030703;28;20258;-73
2022/04/10 01:44:42;;;;;;;2.33;2.00;;;3.30;99.90;;;;;;5030543;28;20603;-73
2022/04/10 01:47:09;;;;;;;2.57;1.93;;;3.40;99.90;;;;;;5030990;28;20240;-73
2022/04/10 01:49:35;;;;;;;2.20;2.00;;;3.30;99.90;;;;;;5031291;28;20330;-73
2022/04/10 01:52:02;;;;;;;3.67;2.50;;;3.20;99.90;;;;;;5029793;28;20799;-74
2022/04/10 01:54:29;;;;;;;2.30;2.10;;;3.20;99.90;;;;;;5012902;28;20220;-73
2022/04/10 01:56:57;;;;;;;2.93;2.43;;;3.20;99.90;;;;;;5030675;28;20660;-73
2022/04/10 01:59:23;;;;;;;2.07;1.97;;;3.20;99.90;;;;;;5041027;28;20232;-73
2022/04/10 02:01:50;;;;;;;4.67;2.53;;;3.20;99.90;;;;;;5032089;28;20201;-73
2022/04/10 02:04:17;;;;;;;2.83;1.83;;;3.20;99.90;;;;;;5031189;28;20735;-73
2022/04/10 02:06:43;;;;;;;3.27;2.00;;;3.20;99.90;;;;;;5030814;28;20577;-70
2022/04/10 02:09:10;;;;;;;3.83;2.30;;;3.10;99.90;;;;;;5031076;28;20205;-70
2022/04/10 02:11:37;;;;;;;3.70;2.40;;;3.10;99.90;;;;;;5029442;28;20263;-70
2022/04/10 02:14:05;;;;;;;3.73;2.20;;;3.10;99.90;;;;;;5029956;28;20209;-72
2022/04/10 02:16:32;;;;;;;3.23;2.30;;;3.10;99.90;;;;;;5032738;28;20213;-72
2022/04/10 02:18:58;;;;;;;5.30;2.43;;;3.10;99.90;;;;;;5029922;28;20786;-72
2022/04/10 02:21:25;;;;;;;3.77;2.60;;;3.10;99.90;;;;;;5030258;28;20586;-72
2022/04/10 02:23:51;;;;;;;4.60;2.00;;;3.10;99.90;;;;;;5030597;28;20262;-72
2022/04/10 02:26:18;;;;;;;5.00;2.60;;;3.00;99.90;;;;;;5029610;28;20729;-74
2022/04/10 02:28:45;;;;;;;4.30;2.37;;;3.00;99.90;;;;;;5030943;28;20546;-75
2022/04/10 02:31:13;;;;;;;4.53;2.83;;;3.00;99.90;;;;;;5030467;28;20212;-74
2022/04/10 02:33:39;;;;;;;5.40;2.57;;;3.00;99.90;;;;;;5030374;28;20225;-74
2022/04/10 02:36:06;;;;;;;3.17;2.67;;;3.00;99.90;;;;;;5030084;28;20713;-74
2022/04/10 02:38:33;;;;;;;4.20;2.60;;;3.00;99.90;;;;;;5029965;28;20653;-75
2022/04/10 02:41:00;;;;;;;2.67;2.10;;;3.00;99.90;;;;;;5030655;28;20209;-75
2022/04/10 02:43:26;;;;;;;6.40;3.07;;;3.00;99.90;;;;;;5030454;28;20267;-76
2022/04/10 02:45:53;;;;;;;3.87;2.80;;;3.00;99.90;;;;;;5029809;28;20685;-76
2022/04/10 02:48:21;;;;;;;3.67;2.67;;;3.00;99.90;;;;;;5030058;28;20259;-75
2022/04/10 02:50:47;;;;;;;3.00;2.50;;;2.90;99.90;;;;;;5030383;28;20209;-75
2022/04/10 02:53:14;;;;;;;7.27;2.63;;;2.90;99.90;;;;;;5025486;28;20201;-75
2022/04/10 02:55:41;;;;;;;3.37;2.40;;;3.00;99.90;;;;;;5040377;28;20268;-76
2022/04/10 02:58:08;;;;;;;6.20;2.73;;;3.00;99.90;;;;;;5044063;28;20224;-76
2022/04/10 03:00:34;;;;;;;4.30;2.63;;;3.00;99.90;;;;;;5029855;28;20204;-76
2022/04/10 03:03:01;;;;;;;2.70;2.50;;;3.10;99.90;;;;;;5030221;28;20209;-77
2022/04/10 03:05:29;;;;;;;6.23;2.03;;;3.10;99.90;;;;;;5030055;28;20209;-76
2022/04/10 03:07:56;;;;;;;5.20;3.00;;;3.10;99.90;;;;;;5030531;28;20258;-76
2022/04/10 03:10:23;;;;;;;5.77;2.40;;;3.10;99.90;;;;;;5030104;28;20209;-76
2022/04/10 03:12:50;;;;;;;5.33;2.70;;;3.10;99.90;;;;;;5029637;28;20271;-76
2022/04/10 03:15:16;;;;;;;3.13;2.40;;;3.10;99.90;;;;;;5029623;28;20205;-76
2022/04/10 03:17:43;;;;;;;4.17;2.57;;;3.10;99.90;;;;;;5020550;28;20688;-72
2022/04/10 03:20:11;;;;;;;4.90;2.60;;;3.20;99.90;;;;;;5029424;28;20291;-72
2022/04/10 03:22:39;;;;;;;4.60;2.20;;;3.20;99.90;;;;;;5029297;28;20197;-72
2022/04/10 03:25:10;;;;;;;5.13;2.90;;;3.20;99.90;;;;;;5029479;28;20251;-73
2022/04/10 03:27:36;;;;;;;3.97;2.50;;;3.10;99.90;;;;;;5029766;28;20205;-73
2022/04/10 03:30:04;;;;;;;2.90;2.40;;;3.10;99.90;;;;;;5029205;28;20223;-72
2022/04/10 03:32:30;;;;;;;2.80;2.20;;;3.10;99.90;;;;;;5029518;28;20320;-73
2022/04/10 03:34:57;;;;;;;5.37;2.60;;;3.10;99.90;;;;;;5029249;28;20228;-73
2022/04/10 03:37:24;;;;;;;6.57;2.50;;;3.00;99.90;;;;;;5028959;28;20255;-73
2022/04/10 03:39:52;;;;;;;5.57;2.43;;;3.00;99.90;;;;;;5029300;28;20291;-73
2022/04/10 03:42:18;;;;;;;3.00;2.00;;;3.10;99.90;;;;;;5029203;28;20205;-73
2022/04/10 03:44:45;;;;;;;3.13;2.30;;;3.00;99.90;;;;;;5029230;28;20204;-78
2022/04/10 03:47:12;;;;;;;4.33;2.40;;;3.00;99.90;;;;;;5024439;28;20217;-78
2022/04/10 03:49:38;;;;;;;5.63;2.73;;;3.10;99.90;;;;;;5028766;28;20212;-78
2022/04/10 03:52:06;;;;;;;5.00;2.50;;;3.10;99.90;;;;;;5038779;28;20240;-78
2022/04/10 03:54:32;;;;;;;3.37;2.30;;;3.00;99.90;;;;;;5029089;28;20216;-77
2022/04/10 03:57:00;;;;;;;4.00;2.50;;;3.00;99.90;;;;;;5029516;28;20623;-78
2022/04/10 03:59:27;;;;;;;3.80;2.40;;;3.00;99.90;;;;;;5028734;28;20627;-78
2022/04/10 04:01:54;;;;;;;5.03;2.30;;;3.00;99.90;;;;;;5028691;28;20254;-74
2022/04/10 04:04:21;;;;;;;3.43;2.30;;;3.00;99.90;;;;;;5028804;28;20204;-73
2022/04/10 04:06:47;;;;;;;5.27;2.60;;;3.00;99.90;;;;;;5028793;28;20205;-73
2022/04/10 04:09:14;;;;;;;5.20;2.10;;;2.90;99.90;;;;;;5028779;28;20225;-77
2022/04/10 04:11:41;;;;;;;3.67;2.50;;;3.00;99.90;;;;;;5028623;28;20209;-76
2022/04/10 04:14:09;;;;;;;5.93;2.27;;;2.90;99.90;;;;;;5028608;28;20240;-76
2022/04/10 04:16:35;;;;;;;4.77;2.50;;;3.00;99.90;;;;;;5030992;28;20212;-77
2022/04/10 04:19:02;;;;;;;3.70;2.30;;;3.00;99.90;;;;;;5028797;28;20282;-76
2022/04/10 04:21:29;;;;;;;3.70;2.33;;;3.00;99.90;;;;;;5028578;28;20240;-76
2022/04/10 04:23:55;;;;;;;8.13;2.73;;;3.00;99.90;;;;;;5028622;28;20197;-74
2022/04/10 04:26:22;;;;;;;4.90;2.57;;;3.20;99.90;;;;;;5028683;28;20209;-75
2022/04/10 04:28:49;;;;;;;6.80;2.23;;;3.10;99.90;;;;;;5028514;28;20593;-75
2022/04/10 04:31:17;;;;;;;4.77;2.47;;;3.20;99.90;;;;;;5028273;28;20235;-74
2022/04/10 04:33:43;;;;;;;3.37;2.23;;;3.10;99.90;;;;;;5028103;28;20613;-74
2022/04/10 04:36:10;;;;;;;3.87;2.30;;;3.20;99.90;;;;;;5023851;28;20970;-74
2022/04/10 04:38:37;;;;;;;5.63;2.50;;;3.20;99.90;;;;;;5020890;28;20321;-73
2022/04/10 04:41:10;;;;;;;4.83;2.47;;;3.30;99.90;;;;;;5026435;28;20638;-74
2022/04/10 04:43:37;;;;;;;6.57;2.30;;;3.30;99.90;;;;;;5026382;28;20749;-74
2022/04/10 04:46:06;;;;;;;6.07;2.23;;;3.40;99.90;;;;;;5016200;28;20227;-74
2022/04/10 04:48:34;;;;;;;6.40;2.53;;;3.40;99.90;;;;;;5025639;28;20227;-73
2022/04/10 04:51:02;;;;;;;5.43;2.80;;;3.40;99.90;;;;;;5025667;28;20635;-73
2022/04/10 04:53:32;;;;;;;5.03;2.00;;;3.30;99.90;;;;;;5021176;28;20236;-73
2022/04/10 04:55:59;;;;;;;5.77;2.20;;;3.20;99.90;;;;;;5026316;28;20208;-73
2022/04/10 04:58:25;;;;;;;6.30;2.90;;;3.20;99.90;;;;;;5025818;28;20236;-73
2022/04/10 05:00:52;;;;;;;4.30;2.10;;;3.20;99.90;;;;;;5025328;28;20623;-73
2022/04/10 05:03:18;;;;;;;3.43;2.10;;;3.20;99.90;;;;;;5026553;28;20208;-73
2022/04/10 05:05:46;;;;;;;3.47;2.20;;;3.20;99.90;;;;;;5026213;28;20268;-73
2022/04/10 05:08:13;;;;;;;3.80;2.20;;;3.20;99.90;;;;;;5026808;28;20255;-73
2022/04/10 05:10:40;;;;;;;5.90;2.23;;;3.20;99.90;;;;;;5026467;28;20208;-73
2022/04/10 05:13:08;;;;;;;5.80;2.20;;;3.20;99.90;;;;;;5025812;28;20208;-73
2022/04/10 05:15:35;;;;;;;4.43;2.20;;;3.30;99.90;;;;;;5029993;28;20216;-73
2022/04/10 05:18:02;;;;;;;5.80;2.20;;;3.30;99.90;;;;;;5045398;28;20290;-72
2022/04/10 05:20:28;;;;;;;7.43;3.00;;;3.30;99.90;;;;;;5035082;28;20290;-72
2022/04/10 05:22:56;;;;;;;6.13;2.20;;;3.30;99.90;;;;;;5025362;28;20261;-73
2022/04/10 05:25:23;;;;;;;3.63;2.20;;;3.30;99.90;;;;;;5025469;28;20201;-73
2022/04/10 05:27:50;;;;;;;6.33;2.60;;;3.30;99.90;;;;;;5025388;28;20647;-74
2022/04/10 05:30:17;;;;;;;6.10;2.17;;;3.30;99.90;;;;;;5025456;28;20797;-73
2022/04/10 05:32:44;;;;;;;6.57;2.80;;;3.40;99.90;;;;;;5025348;28;20205;-73
2022/04/10 05:35:12;;;;;;;5.10;2.57;;;3.40;99.90;;;;;;5025678;28;20572;-73
2022/04/10 05:37:39;;;;;;;4.70;2.47;;;3.40;99.90;;;;;;5025268;28;20209;-73
2022/04/10 05:40:08;;;;;;;4.00;3.30;;;3.50;99.90;;;;;;5025150;28;20665;-73
2022/04/10 05:42:39;;;;;;;4.50;2.43;;;3.50;99.90;;;;;;5025386;28;20237;-73
2022/04/10 05:45:06;;;;;;;5.37;2.77;;;3.50;99.90;;;;;;5025241;28;20295;-73
2022/04/10 05:47:33;;;;;;;6.07;2.47;;;3.50;99.90;;;;;;5021782;28;20209;-72
2022/04/10 05:50:00;;;;;;;4.73;2.50;;;3.60;99.90;;;;;;5029276;28;20481;-73
2022/04/10 05:52:26;;;;;;;8.37;2.63;;;3.60;99.90;;;;;;5028492;28;20263;-73
2022/04/10 05:54:53;;;;;;;5.70;2.67;;;3.70;99.90;;;;;;5027924;28;20569;-72
2022/04/10 05:57:21;;;;;;;7.03;2.40;;;3.60;99.90;;;;;;5028851;28;20228;-73
2022/04/10 05:59:48;;;;;;;5.53;2.30;;;3.60;99.90;;;;;;5028711;28;20298;-73
2022/04/10 06:02:14;;;;;;;2.93;2.13;;;3.60;99.90;;;;;;5028475;28;20702;-73
2022/04/10 06:04:41;;;;;;;4.60;2.20;;;3.60;99.90;;;;;;5028523;28;20204;-73
2022/04/10 06:07:08;;;;;;;3.87;2.27;;;3.70;99.90;;;;;;5028550;28;20675;-73
2022/04/10 06:09:34;;;;;;;3.93;2.00;;;3.80;99.90;;;;;;5028981;28;20298;-73
2022/04/10 06:12:01;;;;;;;5.20;2.40;;;3.80;99.90;;;;;;5028752;28;20208;-73
2022/04/10 06:14:29;;;;;;;6.70;2.30;;;3.80;99.90;;;;;;5028240;28;20263;-73
2022/04/10 06:16:55;;;;;;;6.03;2.23;;;3.80;99.90;;;;;;5030515;28;20282;-73
2022/04/10 06:19:22;;;;;;;6.23;2.20;;;3.90;99.90;;;;;;5009529;28;20785;-72
2022/04/10 06:21:50;;;;;;;4.80;2.30;;;3.90;99.90;;;;;;5008717;28;20244;-74
2022/04/10 06:24:17;;;;;;;8.03;2.40;;;3.90;99.90;;;;;;5024054;28;20217;-74
2022/04/10 06:26:44;;;;;;;4.47;2.10;;;3.90;99.90;;;;;;5028483;28;20204;-73
2022/04/10 06:29:11;;;;;;;3.10;1.73;;;4.00;99.90;;;;;;5028732;28;20210;-73
2022/04/10 06:31:39;;;;;;;7.00;2.13;;;4.10;99.90;;;;;;5029234;28;20216;-73
2022/04/10 06:34:06;;;;;;;5.00;2.80;;;4.30;99.90;;;;;;5028826;28;20217;-73
2022/04/10 06:36:33;;;;;;;5.30;2.57;;;4.40;99.90;;;;;;5028467;28;20219;-74
2022/04/10 06:38:59;;;;;;;5.37;2.23;;;4.30;99.90;;;;;;5027510;28;20886;-74
2022/04/10 06:41:26;;;;;;;5.90;2.10;;;4.40;99.90;;;;;;5044453;28;20261;-73
2022/04/10 06:43:52;;;;;;;8.17;2.50;;;4.40;99.90;;;;;;5036053;28;20228;-74
2022/04/10 06:46:19;;;;;;;6.77;2.50;;;4.40;99.90;;;;;;5028203;28;20243;-74
2022/04/10 06:48:47;;;;;;;8.90;2.37;;;4.40;99.90;;;;;;5028084;28;20216;-73
2022/04/10 06:51:14;;;;;;;3.80;2.30;;;4.40;99.90;;;;;;5027919;28;20197;-74
2022/04/10 06:53:40;;;;;;;4.07;1.90;;;4.30;99.90;;;;;;5027917;28;20205;-73
2022/04/10 06:56:07;;;;;;;5.37;2.37;;;4.40;99.90;;;;;;5027965;28;20274;-74
2022/04/10 06:58:34;;;;;;;6.87;3.13;;;4.40;99.90;;;;;;5027023;28;20248;-73
2022/04/10 07:01:00;;;;;;;4.23;2.30;;;4.30;99.90;;;;;;5027169;28;20642;-74
2022/04/10 07:03:27;;;;;;;4.33;2.07;;;4.30;99.90;;;;;;5027633;28;20252;-73
2022/04/10 07:05:55;;;;;;;4.03;2.30;;;4.40;99.90;;;;;;5027176;28;20700;-74
2022/04/10 07:08:22;;;;;;;3.67;2.17;;;4.40;99.90;;;;;;5027864;28;20274;-74
2022/04/10 07:10:49;;;;;;;7.87;2.60;;;4.40;99.90;;;;;;5027535;28;20201;-74
2022/04/10 07:13:18;;;;;;;5.20;2.00;;;4.50;99.90;;;;;;5027232;28;20758;-74
2022/04/10 07:15:45;;;;;;;3.77;2.50;;;4.50;99.90;;;;;;5029751;28;20681;-74
2022/04/10 07:18:12;;;;;;;4.03;2.27;;;4.60;99.90;;;;;;5030683;28;20259;-74
2022/04/10 07:20:38;;;;;;;3.50;2.10;;;4.70;99.90;;;;;;5027037;28;20252;-74
2022/04/10 07:25:52;;;;;;;4.93;2.17;;;4.60;99.90;;;;;;5026946;28;20579;-74
2022/04/10 07:28:19;;;;;;;4.13;2.37;;;4.60;99.90;;;;;;5027343;28;20282;-74
2022/04/10 07:30:45;;;;;;;6.67;2.50;;;4.70;99.90;;;;;;5027349;28;20224;-74
2022/04/10 07:33:12;;;;;;;5.03;2.53;;;4.60;99.90;;;;;;5026944;28;20254;-74
2022/04/10 07:35:40;;;;;;;5.83;2.70;;;4.70;99.90;;;;;;5027116;28;20208;-74
2022/04/10 07:38:10;;;;;;;4.97;2.47;;;4.70;99.90;;;;;;5027044;28;20316;-73
2022/04/10 07:40:38;;;;;;;6.73;2.10;;;4.70;99.90;;;;;;5024345;28;20363;-74
2022/04/10 07:43:05;;;;;;;6.40;2.77;;;4.70;99.90;;;;;;5020293;28;20211;-74
2022/04/10 07:48:16;;;;;;;4.00;2.07;;;4.70;99.90;;;;;;5027052;28;20228;-74
2022/04/10 07:50:43;;;;;;;5.60;2.13;;;4.60;99.90;;;;;;5027984;28;20730;-73
2022/04/10 07:53:11;;;;;;;4.77;2.10;;;4.70;99.90;;;;;;5028675;28;20212;-73
2022/04/10 07:55:38;;;;;;;6.53;2.40;;;4.60;99.90;;;;;;5028557;28;20573;-73
2022/04/10 07:58:05;;;;;;;6.77;2.40;;;4.60;99.90;;;;;;5028231;28;20668;-74
2022/04/10 08:00:33;;;;;;;5.47;2.20;;;4.70;99.90;;;;;;5028190;28;20294;-74
2022/04/10 08:03:00;;;;;;;4.87;2.20;;;4.70;99.90;;;;;;5028505;28;20568;-73
2022/04/10 08:05:27;;;;;;;3.03;1.67;;;4.80;99.90;;;;;;5028138;28;20213;-74
2022/04/10 08:07:53;;;;;;;4.17;2.73;;;4.80;99.90;;;;;;5027857;28;20299;-74
2022/04/10 08:10:22;;;;;;;8.37;2.67;;;4.80;99.90;;;;;;5028013;28;20256;-74
2022/04/10 08:12:49;;;;;;;5.47;2.60;;;4.90;99.90;;;;;;5027907;28;20205;-73
2022/04/10 08:15:15;;;;;;;6.60;2.40;;;5.00;99.90;;;;;;5029465;28;20212;-73
2022/04/10 08:17:42;;;;;;;6.47;2.70;;;5.10;99.90;;;;;;5027683;28;20209;-73
2022/04/10 08:20:10;;;;;;;8.03;4.07;;;5.20;99.90;;;;;;5027594;28;20240;-73
2022/04/10 08:22:38;;;;;;;4.07;2.30;;;5.30;99.90;;;;;;5028230;28;20730;-73
2022/04/10 08:25:07;;;;;;;7.67;2.20;;;5.40;99.90;;;;;;5027931;28;20201;-73
2022/04/10 08:27:35;;;;;;;5.43;2.50;;;5.40;99.90;;;;;;5028195;28;20215;-73
2022/04/10 08:30:03;;;;;;;7.77;2.47;;;5.50;99.90;;;;;;5027289;28;20564;-74
2022/04/10 08:32:36;;;;;;;7.70;2.63;;;5.70;99.90;;;;;;5032468;28;20204;-74
2022/04/10 08:35:02;;;;;;;6.60;2.27;;;5.70;99.90;;;;;;5033273;28;20203;-74
2022/04/10 08:37:29;;;;;;;6.10;2.50;;;5.70;99.90;;;;;;5028270;28;20286;-72
2022/04/10 08:39:55;;;;;;;5.63;2.30;;;5.70;99.90;;;;;;5027558;28;20724;-76
2022/04/10 08:42:22;;;;;;;5.77;2.40;;;5.80;99.90;;;;;;5027902;28;20208;-74
2022/04/10 08:44:51;;;;;;;4.20;1.97;;;5.90;99.90;;;;;;5027498;28;20250;-74
2022/04/10 08:47:20;;;;;;;7.87;2.40;;;5.90;99.90;;;;;;5028007;28;20256;-74
2022/04/10 08:49:47;;;;;;;4.90;2.40;;;5.80;99.90;;;;;;5027654;28;20296;-74
2022/04/10 08:52:17;;;;;;;5.43;2.10;;;5.70;99.90;;;;;;5027475;28;20235;-74
2022/04/10 08:54:45;;;;;;;7.87;3.67;;;5.70;99.90;;;;;;5027719;28;20223;-74
2022/04/10 08:57:11;;;;;;;5.00;2.87;;;5.70;99.90;;;;;;5027257;28;20725;-75
2022/04/10 08:59:38;;;;;;;10.03;4.23;;;5.70;99.90;;;;;;5027115;28;20232;-74
2022/04/10 09:02:06;;;;;;;10.33;3.57;;;5.70;99.90;;;;;;5027539;28;20205;-75
2022/04/10 09:04:33;;;;;;;7.67;2.63;;;5.70;99.90;;;;;;5024813;28;20302;-74
2022/04/10 09:07:03;;;;;;;4.77;3.50;;;5.80;99.90;;;;;;5025815;28;20702;-75
2022/04/10 09:09:31;;;;;;;5.63;2.20;;;6.00;99.90;;;;;;5026010;28;20219;-75
2022/04/10 09:11:58;;;;;;;5.17;2.00;;;6.10;99.90;;;;;;5026317;28;20240;-74
2022/04/10 09:14:27;;;;;;;4.50;2.10;;;6.10;99.90;;;;;;5026140;28;20261;-74
2022/04/10 09:17:16;;;;;;;6.33;2.60;;;6.10;99.90;;;;;;5026202;28;20211;-74
2022/04/10 09:19:44;;;;;;;7.10;2.30;;;6.10;99.90;;;;;;5025708;28;21053;-74
2022/04/10 09:22:21;;;;;;;5.07;2.00;;;6.30;99.90;;;;;;5029495;28;20611;-74
2022/04/10 09:25:02;;;;;;;5.17;2.43;;;6.40;99.90;;;;;;5029674;28;20568;-74
2022/04/10 09:27:32;;;;;;;6.10;2.37;;;6.20;99.90;;;;;;5029494;28;20204;-74
2022/04/10 09:29:59;;;;;;;5.70;2.60;;;5.60;99.90;;;;;;5028934;28;20221;-74
2022/04/10 09:32:39;;;;;;;5.90;2.33;;;5.10;99.90;;;;;;5028904;28;20229;-74
2022/04/10 09:35:07;;;;;;;6.27;2.67;;;4.90;99.90;;;;;;5029350;28;20624;-74
2022/04/10 09:37:42;;;;;;;6.27;2.17;;;4.80;99.90;;;;;;5029274;28;20258;-74
2022/04/10 09:40:22;;;;;;;4.13;2.30;;;4.90;99.90;;;;;;5028972;28;20224;-74
2022/04/10 09:42:49;;;;;;;3.20;2.20;;;5.20;99.90;;;;;;5029430;28;21025;-74
2022/04/10 09:45:27;;;;;;;5.97;2.13;;;5.30;99.90;;;;;;5029507;28;20212;-74
2022/04/10 09:47:55;;;;;;;8.00;2.50;;;5.50;99.90;;;;;;5009545;28;20208;-74
2022/04/10 09:50:31;;;;;;;5.30;2.57;;;5.60;99.90;;;;;;5029240;28;20208;-74
2022/04/10 09:52:57;;;;;;;6.93;2.40;;;5.90;99.90;;;;;;5029084;28;20236;-74
2022/04/10 09:55:35;;;;;;;5.23;2.30;;;6.00;99.90;;;;;;5029130;28;20625;-74
2022/04/10 09:58:05;;;;;;;5.43;2.00;;;6.20;99.90;;;;;;5025415;28;20205;-74
2022/04/10 10:00:33;;;;;;;3.90;2.00;;;6.30;99.90;;;;;;5029231;28;20221;-75
2022/04/10 10:03:02;;;;;;;5.67;1.93;;;6.50;99.90;;;;;;5029110;28;20200;-74
2022/04/10 10:05:30;;;;;;;4.27;1.67;;;6.70;99.90;;;;;;5028994;28;20271;-74
2022/04/10 10:07:57;;;;;;;3.80;1.97;;;7.00;99.90;;;;;;5028614;28;20274;-75
2022/04/10 10:10:25;;;;;;;4.97;1.90;;;7.00;99.90;;;;;;5028539;28;20296;-74
2022/04/10 10:12:53;;;;;;;5.80;2.00;;;7.00;99.90;;;;;;5028733;28;20205;-74
2022/04/10 10:15:20;;;;;;;9.50;5.53;;;6.90;99.90;;;;;;5030696;28;20212;-74
2022/04/10 10:17:47;;;;;;;4.27;2.80;;;7.00;99.90;;;;;;5048361;28;20216;-74
2022/04/10 10:20:17;;;;;;;5.63;2.07;;;7.10;99.90;;;;;;5048122;28;20275;-74
2022/04/10 10:22:43;;;;;;;5.10;1.83;;;7.30;99.90;;;;;;5039705;28;20209;-74
2022/04/10 10:25:15;;;;;;;4.23;1.80;;;7.10;99.90;;;;;;5034689;28;20274;-74
2022/04/10 10:28:09;;;;;;;4.07;1.93;;;6.90;99.90;;;;;;5038661;28;20671;-74
2022/04/10 10:30:44;;;;;;;6.57;2.00;;;7.00;99.90;;;;;;5028259;28;20940;-74
2022/04/10 10:33:14;;;;;;;3.73;2.37;;;6.90;99.90;;;;;;5027090;28;20225;-74
2022/04/10 10:35:44;;;;;;;5.30;2.07;;;7.00;99.90;;;;;;5028195;28;20209;-74
2022/04/10 10:38:21;;;;;;;5.63;2.30;;;7.10;99.90;;;;;;5028887;28;20193;-74
2022/04/10 10:40:48;;;;;;;3.53;1.93;;;7.20;99.90;;;;;;5028194;28;20260;-74
2022/04/10 10:43:19;;;;;;;3.37;1.77;;;7.40;99.90;;;;;;5028665;28;20680;-74
2022/04/10 10:45:46;;;;;;;6.00;1.90;;;7.70;99.90;;;;;;5028650;28;20209;-74
2022/04/10 10:48:35;;;;;;;3.97;2.00;;;7.80;99.90;;;;;;5028253;28;20209;-74
2022/04/10 10:51:42;;;;;;;4.07;1.70;;;7.80;99.90;;;;;;5027985;28;20233;-74
2022/04/10 10:54:11;;;;;;;4.10;1.60;;;7.50;99.90;;;;;;5026608;28;20798;-74
2022/04/10 10:56:40;;;;;;;4.57;1.97;;;7.30;99.90;;;;;;5027897;28;20208;-74
2022/04/10 10:59:25;;;;;;;3.70;1.57;;;7.20;99.90;;;;;;5027483;28;20686;-74
2022/04/10 11:01:53;;;;;;;3.40;1.90;;;7.20;99.90;;;;;;5027418;28;20217;-74
2022/04/10 11:04:20;;;;;;;3.63;1.60;;;7.20;99.90;;;;;;5028011;28;20197;-75
2022/04/10 11:06:49;;;;;;;3.77;1.63;;;7.20;99.90;;;;;;5027282;28;20512;-74
2022/04/10 11:09:23;;;;;;;4.87;1.97;;;7.20;99.90;;;;;;5027660;28;20636;-74
2022/04/10 11:11:51;;;;;;;5.40;1.70;;;7.30;99.90;;;;;;5027888;28;20216;-71
2022/04/10 11:14:34;;;;;;;2.30;1.47;;;7.30;99.90;;;;;;5027405;28;20209;-74
2022/04/10 11:17:09;;;;;;;4.10;1.43;;;7.60;99.90;;;;;;5043582;28;20215;-73
2022/04/10 11:19:36;;;;;;;3.30;1.70;;;7.70;99.90;;;;;;5033604;28;20254;-75
2022/04/10 11:22:07;;;;;;;3.10;1.67;;;7.80;99.90;;;;;;5027767;28;20320;-73
2022/04/10 11:24:36;;;;;;;2.43;1.90;;;7.90;99.90;;;;;;5027854;28;20751;-73
2022/04/10 11:27:05;;;;;;;3.13;2.10;;;7.80;99.90;;;;;;5027695;28;20326;-73
2022/04/10 11:29:33;;;;;;;4.37;1.53;;;7.80;99.90;;;;;;5027134;28;20205;-73
2022/04/10 11:32:05;;;;;;;2.03;1.50;;;7.80;99.90;;;;;;5007739;28;20232;-73
2022/04/10 11:34:32;;;;;;;2.87;1.47;;;7.80;99.90;;;;;;5012575;28;20735;-73
2022/04/10 11:37:03;;;;;;;3.87;1.63;;;7.80;99.90;;;;;;5027352;28;20215;-73
2022/04/10 11:39:34;;;;;;;3.67;1.40;;;7.90;99.90;;;;;;5027275;28;20659;-73
2022/04/10 11:42:02;;;;;;;2.87;1.37;;;8.30;99.90;;;;;;5027543;28;20228;-73
2022/04/10 11:44:30;;;;;;;3.60;1.40;;;8.50;99.90;;;;;;5026591;28;20216;-73
2022/04/10 11:46:59;;;;;;;4.53;1.67;;;8.30;99.90;;;;;;5015392;28;20213;-73
2022/04/10 11:49:25;;;;;;;3.33;1.53;;;8.40;99.90;;;;;;5026718;28;20690;-73
2022/04/10 11:51:54;;;;;;;4.40;1.53;;;8.60;99.90;;;;;;5026662;28;20228;-73
2022/04/10 11:54:27;;;;;;;2.07;1.07;;;8.50;99.90;;;;;;5010565;28;20201;-73
2022/04/10 11:56:55;;;;;;;4.20;2.03;;;8.60;99.90;;;;;;5026779;28;20208;-73
2022/04/10 11:59:22;;;;;;;4.77;1.70;;;8.60;99.90;;;;;;5027042;28;20217;-73
2022/04/10 12:01:50;;;;;;;4.70;1.90;;;8.70;99.90;;;;;;5027011;28;20228;-74
2022/04/10 12:04:18;;;;;;;4.10;1.77;;;8.80;99.90;;;;;;5027590;28;20236;-73
2022/04/10 12:06:45;;;;;;;3.60;1.90;;;8.60;99.90;;;;;;5027190;28;20296;-74
2022/04/10 12:09:12;;;;;;;4.63;1.80;;;8.50;99.90;;;;;;5026697;28;20228;-73
2022/04/10 12:11:40;;;;;;;3.10;1.60;;;8.10;99.90;;;;;;5026230;28;20637;-73
2022/04/10 12:14:23;;;;;;;3.20;1.43;;;7.90;99.90;;;;;;5026662;28;20197;-73
2022/04/10 12:16:51;;;;;;;3.10;1.40;;;7.80;99.90;;;;;;5026343;28;20200;-73
2022/04/10 12:19:29;;;;;;;2.20;1.50;;;7.80;99.90;;;;;;5026193;28;20243;-73
2022/04/10 12:21:56;;;;;;;2.77;1.77;;;7.80;99.90;;;;;;5023532;28;20251;-73
2022/04/10 12:24:22;;;;;;;5.67;1.70;;;7.80;99.90;;;;;;5026652;28;20208;-73
2022/04/10 12:26:50;;;;;;;3.17;1.40;;;7.90;99.90;;;;;;5026567;28;20204;-73
2022/04/10 12:29:17;;;;;;;3.93;1.80;;;7.90;99.90;;;;;;5026542;28;20205;-73
2022/04/10 12:31:47;;;;;;;3.13;1.23;;;7.90;99.90;;;;;;5026486;28;20220;-73
2022/04/10 12:34:14;;;;;;;2.77;1.23;;;7.90;99.90;;;;;;5026508;28;20613;-73
2022/04/10 12:36:49;;;;;;;3.33;1.23;;;8.00;99.90;;;;;;5026360;28;20212;-73
2022/04/10 12:39:26;;;;;;;3.33;1.47;;;8.10;99.90;;;;;;5026278;28;20329;-73
2022/04/10 12:42:07;;;;;;;2.10;1.30;;;8.20;99.90;;;;;;5026143;28;20239;-73
2022/04/10 12:44:34;;;;;;;2.07;1.07;;;8.10;99.90;;;;;;5026541;28;20718;-73
2022/04/10 12:47:02;;;;;;;1.80;1.20;;;8.20;99.90;;;;;;5026343;28;20216;-73
2022/04/10 12:49:29;;;;;;;3.33;1.20;;;8.10;99.90;;;;;;5020274;28;20568;-73
2022/04/10 12:51:59;;;;;;;3.07;1.47;;;8.10;99.90;;;;;;5016184;28;20205;-73
2022/04/10 12:54:36;;;;;;;1.53;1.10;;;8.00;99.90;;;;;;5023678;28;20207;-72
2022/04/10 12:57:04;;;;;;;4.50;1.40;;;8.00;99.90;;;;;;5026782;28;20204;-73
2022/04/10 12:59:35;;;;;;;1.60;1.27;;;7.80;99.90;;;;;;5026815;28;20271;-73
2022/04/10 13:02:08;;;;;;;4.33;1.80;;;7.50;99.90;;;;;;5027406;28;20233;-73
2022/04/10 13:04:34;;;;;;;5.07;1.57;;;7.40;99.90;;;;;;5027326;28;20608;-73
2022/04/10 13:07:01;;;;;;;2.80;1.47;;;7.30;99.90;;;;;;5026743;28;20204;-73
2022/04/10 13:09:28;;;;;;;3.30;1.80;;;7.30;99.90;;;;;;5027157;28;20216;-73